Santa Ana, Bolivia
Current Conditions -  °F | °C
As of 7:00 PM on Wednesday 22 Oct 2014 (Local Time) from SLSA Reporting Station
Broken Clouds Broken Clouds  
Wind Chill: 88°   Ceiling: 20000
Heat Index: 96°   Visibility: 5mi
Dew Point: 73°   Wind: 0mph
Humidity: 62%   Direction: NA
Pressure: 29.74"   Gusts: NA
Location:  13.77°S, 65.56°W
Report Text: SLSA 222300Z 00000KT 8000 FEW020 BKN200 31/23 Q1007
Loading
Personal Weather Stations






























Interactive Weather Map
Tropical Storm Tracking
New forecast layout! Learn more

10-Day Weather Forecast

Advertisements
Track Severe Weather on mobile